createdAt,value
2023-04-16T00:00:43.408Z,4.08
2023-04-16T00:03:10.333Z,4.08
2023-04-16T00:05:37.026Z,3.63
2023-04-16T00:08:03.688Z,3.95
2023-04-16T00:10:30.281Z,3.77
2023-04-16T00:12:56.857Z,3.50
2023-04-16T00:15:23.584Z,3.54
2023-04-16T00:17:50.200Z,3.22
2023-04-16T00:20:16.894Z,3.29
2023-04-16T00:22:43.515Z,3.09
2023-04-16T00:25:10.292Z,3.73
2023-04-16T00:27:36.908Z,3.83
2023-04-16T00:30:03.713Z,4.22
2023-04-16T00:32:30.666Z,4.18
2023-04-16T00:34:57.257Z,4.05
2023-04-16T00:37:23.901Z,3.90
2023-04-16T00:39:50.985Z,3.71
2023-04-16T00:42:17.660Z,3.54
2023-04-16T00:44:44.248Z,3.52
2023-04-16T00:47:11.886Z,3.36
2023-04-16T00:49:38.901Z,3.40
2023-04-16T00:52:05.669Z,3.53
2023-04-16T00:54:32.566Z,3.69
2023-04-16T00:56:59.647Z,3.81
2023-04-16T00:59:27.273Z,3.74
2023-04-16T01:01:54.055Z,4.16
2023-04-16T01:04:21.405Z,4.34
2023-04-16T01:06:48.141Z,4.26
2023-04-16T01:09:14.736Z,4.24
2023-04-16T01:11:41.368Z,4.57
2023-04-16T01:14:08.486Z,4.74
2023-04-16T01:16:35.154Z,5.14
2023-04-16T01:19:02.952Z,5.01
2023-04-16T01:21:29.523Z,5.09
2023-04-16T01:23:56.097Z,5.46
2023-04-16T01:26:22.762Z,5.52
2023-04-16T01:28:49.375Z,5.47
2023-04-16T01:31:16.178Z,5.78
2023-04-16T01:33:42.882Z,5.47
2023-04-16T01:36:09.536Z,5.66
2023-04-16T01:38:36.193Z,5.44
2023-04-16T01:41:02.805Z,5.56
2023-04-16T01:43:29.389Z,5.94
2023-04-16T01:46:13.692Z,5.75
2023-04-16T01:48:40.778Z,5.66
2023-04-16T01:51:07.365Z,6.04
2023-04-16T01:53:35.795Z,6.15
2023-04-16T01:56:03.882Z,5.80
2023-04-16T01:58:31.266Z,6.35
2023-04-16T02:00:58.464Z,6.45
2023-04-16T02:03:25.533Z,6.72
2023-04-16T02:05:52.307Z,6.59
2023-04-16T02:08:19.173Z,6.88
2023-04-16T02:10:47.272Z,7.50
2023-04-16T02:13:15.802Z,7.89
2023-04-16T02:15:49.901Z,7.94
2023-04-16T02:18:16.794Z,8.25
2023-04-16T02:20:45.334Z,8.75
2023-04-16T02:23:12.241Z,8.74
2023-04-16T02:25:41.250Z,8.66
2023-04-16T02:28:09.120Z,8.84
2023-04-16T02:30:40.369Z,8.97
2023-04-16T02:33:08.646Z,9.03
2023-04-16T02:35:35.496Z,9.15
2023-04-16T02:38:04.236Z,9.09
2023-04-16T02:40:31.885Z,9.25
2023-04-16T02:42:58.491Z,9.32
2023-04-16T02:45:25.392Z,9.49
2023-04-16T02:47:52.167Z,9.76
2023-04-16T02:50:18.817Z,9.80
2023-04-16T02:52:45.443Z,9.74
2023-04-16T02:55:12.491Z,9.96
2023-04-16T02:57:39.113Z,10.49
2023-04-16T03:00:06.304Z,10.50
2023-04-16T03:02:32.996Z,10.86
2023-04-16T03:04:59.615Z,10.73
2023-04-16T03:07:26.296Z,10.85
2023-04-16T03:09:52.864Z,10.57
2023-04-16T03:12:19.450Z,10.96
2023-04-16T03:14:46.118Z,10.64
2023-04-16T03:17:12.805Z,10.71
2023-04-16T03:19:39.437Z,11.02
2023-04-16T03:22:06.211Z,11.48
2023-04-16T03:24:32.946Z,12.89
2023-04-16T03:26:59.572Z,12.49
2023-04-16T03:29:26.748Z,12.37
2023-04-16T03:31:53.433Z,12.38
2023-04-16T03:34:20.078Z,12.14
2023-04-16T03:36:46.753Z,11.72
2023-04-16T03:39:13.367Z,11.36
2023-04-16T03:41:40.006Z,11.60
2023-04-16T03:44:06.590Z,11.42
2023-04-16T03:46:33.252Z,11.51
2023-04-16T03:48:59.868Z,11.23
2023-04-16T03:51:26.480Z,10.84
2023-04-16T03:53:53.206Z,11.01
2023-04-16T03:56:19.800Z,10.71
2023-04-16T03:58:46.385Z,10.81
2023-04-16T04:01:13.010Z,11.10
2023-04-16T04:03:39.860Z,11.73
2023-04-16T04:06:08.351Z,12.43
2023-04-16T04:08:35.286Z,12.64
2023-04-16T04:11:01.883Z,12.19
2023-04-16T04:13:28.624Z,12.68
2023-04-16T04:15:55.411Z,12.79
2023-04-16T04:18:22.268Z,12.30
2023-04-16T04:20:48.875Z,12.48
2023-04-16T04:23:15.777Z,12.19
2023-04-16T04:25:42.391Z,12.47
2023-04-16T04:28:08.977Z,12.79
2023-04-16T04:30:38.635Z,12.46
2023-04-16T04:33:05.484Z,12.64
2023-04-16T04:35:32.255Z,12.80
2023-04-16T04:37:58.896Z,12.21
2023-04-16T04:40:25.553Z,12.10
2023-04-16T04:42:52.146Z,11.72
2023-04-16T04:45:19.201Z,12.01
2023-04-16T04:47:45.944Z,11.80
2023-04-16T04:50:12.625Z,11.95
2023-04-16T04:52:39.232Z,11.99
2023-04-16T04:55:06.116Z,11.87
2023-04-16T04:57:32.701Z,12.02
2023-04-16T04:59:59.303Z,12.16
2023-04-16T05:02:26.046Z,11.48
2023-04-16T05:04:52.738Z,11.84
2023-04-16T05:07:19.331Z,12.14
2023-04-16T05:09:46.024Z,12.14
2023-04-16T05:12:12.583Z,12.68
2023-04-16T05:14:39.208Z,12.24
2023-04-16T05:17:06.122Z,12.81
2023-04-16T05:19:32.766Z,12.52
2023-04-16T05:21:59.985Z,12.57
2023-04-16T05:24:26.586Z,12.95
2023-04-16T05:26:53.185Z,13.14
2023-04-16T05:29:20.069Z,13.34
2023-04-16T05:31:46.684Z,12.91
2023-04-16T05:34:13.344Z,13.46
2023-04-16T05:36:39.937Z,12.89
2023-04-16T05:39:07.785Z,13.06
2023-04-16T05:41:34.694Z,12.93
2023-04-16T05:44:01.280Z,12.71
2023-04-16T05:46:27.927Z,12.78
2023-04-16T05:48:54.713Z,13.09
2023-04-16T05:51:23.078Z,12.95
2023-04-16T05:53:49.645Z,12.45
2023-04-16T05:56:16.237Z,12.87
2023-04-16T05:58:42.821Z,13.12
2023-04-16T06:01:11.176Z,12.87
2023-04-16T06:03:37.878Z,12.74
2023-04-16T06:06:04.702Z,13.03
2023-04-16T06:08:31.379Z,12.83
2023-04-16T06:10:58.070Z,12.95
2023-04-16T06:13:24.995Z,13.14
2023-04-16T06:15:51.670Z,13.31
2023-04-16T06:18:18.420Z,12.70
2023-04-16T06:20:45.075Z,12.87
2023-04-16T06:23:11.650Z,13.05
2023-04-16T06:25:38.280Z,13.37
2023-04-16T06:28:05.204Z,13.54
2023-04-16T06:30:31.837Z,13.54
2023-04-16T06:32:58.771Z,14.41
2023-04-16T06:35:25.438Z,14.01
2023-04-16T06:37:52.194Z,14.52
2023-04-16T06:40:18.796Z,14.81
2023-04-16T06:42:45.845Z,14.53
2023-04-16T06:45:12.910Z,14.70
2023-04-16T06:47:39.588Z,14.93
2023-04-16T06:50:07.087Z,14.99
2023-04-16T06:52:33.858Z,15.07
2023-04-16T06:55:00.486Z,15.44
2023-04-16T06:57:27.102Z,15.45
2023-04-16T06:59:53.785Z,15.72
2023-04-16T07:02:20.760Z,15.90
2023-04-16T07:04:47.425Z,16.44
2023-04-16T07:07:14.046Z,16.94
2023-04-16T07:09:40.704Z,17.68
2023-04-16T07:12:08.147Z,17.43
2023-04-16T07:14:34.761Z,17.85
2023-04-16T07:17:01.387Z,17.46
2023-04-16T07:19:30.599Z,17.88
2023-04-16T07:21:57.201Z,18.01
2023-04-16T07:24:23.801Z,18.25
2023-04-16T07:26:50.493Z,18.61
2023-04-16T07:29:17.112Z,18.43
2023-04-16T07:31:44.609Z,18.48
2023-04-16T07:34:11.873Z,18.38
2023-04-16T07:36:38.857Z,17.59
2023-04-16T07:39:08.253Z,17.45
2023-04-16T07:41:35.309Z,16.87
2023-04-16T07:44:01.964Z,16.01
2023-04-16T07:46:39.356Z,16.00
2023-04-16T07:49:10.420Z,15.17
2023-04-16T07:51:37.172Z,15.16
2023-04-16T07:54:03.815Z,15.13
2023-04-16T07:56:30.476Z,15.44
2023-04-16T07:58:59.458Z,14.76
2023-04-16T08:01:30.164Z,14.77
2023-04-16T08:03:57.309Z,15.03
2023-04-16T08:06:24.636Z,14.63
2023-04-16T08:08:51.301Z,14.50
2023-04-16T08:11:18.149Z,13.57
2023-04-16T08:13:44.922Z,13.49
2023-04-16T08:16:11.767Z,13.19
2023-04-16T08:18:38.439Z,13.04
2023-04-16T08:21:05.097Z,12.86
2023-04-16T08:23:31.846Z,12.63
2023-04-16T08:25:58.446Z,12.56
2023-04-16T08:28:25.048Z,11.57
2023-04-16T08:30:51.741Z,11.38
2023-04-16T08:33:18.497Z,11.16
2023-04-16T08:35:45.130Z,10.83
2023-04-16T08:38:11.747Z,10.78
2023-04-16T08:40:40.055Z,10.51
2023-04-16T08:43:13.850Z,10.27
2023-04-16T08:45:42.889Z,9.96
2023-04-16T08:48:11.943Z,9.85
2023-04-16T08:50:40.725Z,9.86
2023-04-16T08:53:11.319Z,9.32
2023-04-16T08:55:46.257Z,8.95
2023-04-16T08:58:16.136Z,8.76
2023-04-16T09:00:44.035Z,8.59
2023-04-16T09:03:11.343Z,8.56
2023-04-16T09:05:39.473Z,8.65
2023-04-16T09:08:06.883Z,8.50
2023-04-16T09:10:34.557Z,8.69
2023-04-16T09:13:01.541Z,8.71
2023-04-16T09:15:29.383Z,8.78
2023-04-16T09:17:57.560Z,8.97
2023-04-16T09:20:24.615Z,8.80
2023-04-16T09:22:51.309Z,9.30
2023-04-16T09:25:21.485Z,9.16
2023-04-16T09:27:51.126Z,9.48
2023-04-16T09:30:25.581Z,9.33
2023-04-16T09:33:11.539Z,8.66
2023-04-16T09:35:49.597Z,8.74
2023-04-16T09:38:16.979Z,8.59
2023-04-16T09:40:44.009Z,8.56
2023-04-16T09:43:18.373Z,8.77
2023-04-16T09:45:53.231Z,9.11
2023-04-16T09:48:32.778Z,9.39
2023-04-16T09:51:00.709Z,8.88
2023-04-16T09:53:29.678Z,8.88
2023-04-16T09:56:05.117Z,9.19
2023-04-16T09:58:32.648Z,9.11
2023-04-16T10:01:03.379Z,9.70
2023-04-16T10:03:34.875Z,10.17
2023-04-16T10:06:09.389Z,11.14
2023-04-16T10:08:36.276Z,10.68
2023-04-16T10:11:02.959Z,10.78
2023-04-16T10:13:31.164Z,10.11
2023-04-16T10:15:58.728Z,10.34
2023-04-16T10:18:25.637Z,10.53
2023-04-16T10:20:52.861Z,11.27
2023-04-16T10:23:21.916Z,11.95
2023-04-16T10:25:50.318Z,13.14
2023-04-16T10:28:17.356Z,13.71
2023-04-16T10:30:52.681Z,14.28
2023-04-16T10:33:25.647Z,14.46
2023-04-16T10:36:07.698Z,14.91
2023-04-16T10:38:35.426Z,14.57
2023-04-16T10:41:04.641Z,14.79
2023-04-16T10:43:44.046Z,14.39
2023-04-16T10:46:19.980Z,14.15
2023-04-16T10:48:50.301Z,14.12
2023-04-16T10:51:29.409Z,14.00
2023-04-16T10:54:08.887Z,13.96
2023-04-16T10:56:37.062Z,14.12
2023-04-16T10:59:11.551Z,13.90
2023-04-16T11:01:43.433Z,13.71
2023-04-16T11:04:22.392Z,14.14
2023-04-16T11:07:05.135Z,13.91
2023-04-16T11:09:47.149Z,14.24
2023-04-16T11:12:16.315Z,14.27
2023-04-16T11:14:43.515Z,13.97
2023-04-16T11:17:10.313Z,13.76
2023-04-16T11:19:38.212Z,13.34
2023-04-16T11:22:05.654Z,13.16
2023-04-16T11:24:32.982Z,13.04
2023-04-16T11:27:00.204Z,13.09
2023-04-16T11:29:26.839Z,13.97
2023-04-16T11:31:54.865Z,14.27
2023-04-16T11:34:22.158Z,14.51
2023-04-16T11:36:51.271Z,14.42
2023-04-16T11:39:19.134Z,14.58
2023-04-16T11:41:48.145Z,14.78
2023-04-16T11:44:20.834Z,14.83
2023-04-16T11:46:47.992Z,14.96
2023-04-16T11:49:15.504Z,14.87
2023-04-16T11:51:44.315Z,15.23
2023-04-16T11:54:25.267Z,14.97
2023-04-16T11:56:53.689Z,15.22
2023-04-16T11:59:23.087Z,15.21
2023-04-16T12:01:56.091Z,14.84
2023-04-16T12:04:27.394Z,14.16
2023-04-16T12:07:14.156Z,14.75
2023-04-16T12:09:43.027Z,15.17
2023-04-16T12:12:30.846Z,16.08
2023-04-16T12:15:00.218Z,16.37
2023-04-16T12:17:26.978Z,15.56
2023-04-16T12:19:58.767Z,14.83
2023-04-16T12:22:33.585Z,15.12
2023-04-16T12:25:11.662Z,14.02
2023-04-16T12:27:53.828Z,14.42
2023-04-16T12:30:24.313Z,14.21
2023-04-16T12:32:55.551Z,14.23
2023-04-16T12:35:31.492Z,13.45
2023-04-16T12:37:58.673Z,13.62
2023-04-16T12:40:25.496Z,13.40
2023-04-16T12:42:52.483Z,12.31
2023-04-16T12:45:19.435Z,12.30
2023-04-16T12:47:46.765Z,11.86
2023-04-16T12:50:13.389Z,12.17
2023-04-16T12:52:39.998Z,12.32
2023-04-16T12:55:07.036Z,12.21
2023-04-16T12:57:33.664Z,12.87
2023-04-16T13:00:00.335Z,12.34
2023-04-16T13:02:27.434Z,12.42
2023-04-16T13:04:54.568Z,12.88
2023-04-16T13:07:21.495Z,12.99
2023-04-16T13:09:48.166Z,13.26
2023-04-16T13:12:14.826Z,14.04
2023-04-16T13:14:43.364Z,14.27
2023-04-16T13:17:11.670Z,14.57
2023-04-16T13:19:38.248Z,15.02
2023-04-16T13:22:04.852Z,14.54
2023-04-16T13:24:31.508Z,15.22
2023-04-16T13:26:58.293Z,15.54
2023-04-16T13:29:24.910Z,15.38
2023-04-16T13:31:52.208Z,15.25
2023-04-16T13:34:18.926Z,15.75
2023-04-16T13:36:45.686Z,16.19
2023-04-16T13:39:12.440Z,15.87
2023-04-16T13:41:39.236Z,15.25
2023-04-16T13:44:06.782Z,15.22
2023-04-16T13:46:33.765Z,14.56
2023-04-16T13:49:00.559Z,14.54
2023-04-16T13:51:27.862Z,14.52
2023-04-16T13:53:55.945Z,14.31
2023-04-16T13:56:22.702Z,13.85
2023-04-16T13:58:49.690Z,13.72
2023-04-16T14:01:17.338Z,13.71
2023-04-16T14:03:44.339Z,13.27
2023-04-16T14:06:11.163Z,12.94
2023-04-16T14:08:38.284Z,13.05
2023-04-16T14:11:06.409Z,12.97
2023-04-16T14:13:33.328Z,12.40
2023-04-16T14:16:00.007Z,12.66
2023-04-16T14:18:26.619Z,12.46
2023-04-16T14:20:53.303Z,12.07
2023-04-16T14:23:19.929Z,12.63
2023-04-16T14:25:46.586Z,12.60
2023-04-16T14:28:15.085Z,12.34
2023-04-16T14:30:42.371Z,12.17
2023-04-16T14:33:09.231Z,12.57
2023-04-16T14:35:36.064Z,12.69
2023-04-16T14:38:02.864Z,12.86
2023-04-16T14:40:29.915Z,12.91
2023-04-16T14:42:56.556Z,12.64
2023-04-16T14:45:25.349Z,12.92
2023-04-16T14:47:52.073Z,12.96
2023-04-16T14:50:18.753Z,12.86
2023-04-16T14:52:45.434Z,12.66
2023-04-16T14:55:12.198Z,12.90
2023-04-16T14:57:39.004Z,12.43
2023-04-16T15:00:13.508Z,12.85
2023-04-16T15:02:40.621Z,13.30
2023-04-16T15:05:10.092Z,13.05
2023-04-16T15:07:37.193Z,12.85
2023-04-16T15:10:04.418Z,13.55
2023-04-16T15:12:31.145Z,13.89
2023-04-16T15:14:57.763Z,13.52
2023-04-16T15:17:24.450Z,13.56
2023-04-16T15:19:52.176Z,13.31
2023-04-16T15:22:18.797Z,13.39
2023-04-16T15:24:45.400Z,14.62
2023-04-16T15:27:13.896Z,13.99
2023-04-16T15:29:40.510Z,13.89
2023-04-16T15:32:07.129Z,14.18
2023-04-16T15:34:33.750Z,13.95
2023-04-16T15:37:00.456Z,14.17
2023-04-16T15:39:27.129Z,14.33
2023-04-16T15:42:01.481Z,14.24
2023-04-16T15:44:31.091Z,14.87
2023-04-16T15:46:57.850Z,15.22
2023-04-16T15:49:24.869Z,15.26
2023-04-16T15:51:52.181Z,15.10
2023-04-16T15:54:19.244Z,15.62
2023-04-16T15:56:46.678Z,15.45
2023-04-16T15:59:13.653Z,15.68
2023-04-16T16:01:40.852Z,15.53
2023-04-16T16:04:08.301Z,15.43
2023-04-16T16:06:35.784Z,15.60
2023-04-16T16:09:02.448Z,16.02
2023-04-16T16:11:29.134Z,15.62
2023-04-16T16:13:55.709Z,15.26
2023-04-16T16:16:22.344Z,15.97
2023-04-16T16:18:48.975Z,16.02
2023-04-16T16:21:16.113Z,15.41
2023-04-16T16:23:42.692Z,16.04
2023-04-16T16:26:09.400Z,16.78
2023-04-16T16:28:38.944Z,16.63
2023-04-16T16:31:07.078Z,16.64
2023-04-16T16:33:33.698Z,16.50
2023-04-16T16:36:00.575Z,17.11
2023-04-16T16:38:27.593Z,17.54
2023-04-16T16:40:54.231Z,16.57
2023-04-16T16:43:20.948Z,17.08
2023-04-16T16:45:47.601Z,17.00
2023-04-16T16:48:14.258Z,17.00
2023-04-16T16:50:40.991Z,17.34
2023-04-16T16:53:07.641Z,17.15
2023-04-16T16:55:35.498Z,17.24
2023-04-16T16:58:02.899Z,16.51
2023-04-16T17:00:29.472Z,17.04
2023-04-16T17:02:56.173Z,16.92
2023-04-16T17:05:22.846Z,16.68
2023-04-16T17:07:49.501Z,17.14
2023-04-16T17:10:20.238Z,16.80
2023-04-16T17:12:51.091Z,18.11
2023-04-16T17:15:21.175Z,17.80
2023-04-16T17:17:48.499Z,16.97
2023-04-16T17:20:15.699Z,17.70
2023-04-16T17:22:42.550Z,17.13
2023-04-16T17:25:10.193Z,16.95
2023-04-16T17:27:36.904Z,17.17
2023-04-16T17:30:05.782Z,17.12
2023-04-16T17:32:33.049Z,17.42
2023-04-16T17:35:01.112Z,17.27
2023-04-16T17:37:28.522Z,17.75
2023-04-16T17:39:55.214Z,17.64
2023-04-16T17:42:21.890Z,17.59
2023-04-16T17:44:48.537Z,17.36
2023-04-16T17:47:15.326Z,17.94
2023-04-16T17:49:41.959Z,17.56
2023-04-16T17:52:08.600Z,17.94
2023-04-16T17:54:35.257Z,17.85
2023-04-16T17:57:02.128Z,17.34
2023-04-16T17:59:28.986Z,18.51
2023-04-16T18:01:56.601Z,18.23
2023-04-16T18:04:23.717Z,18.20
2023-04-16T18:06:50.748Z,18.58
2023-04-16T18:09:19.176Z,18.59
2023-04-16T18:11:45.863Z,19.32
2023-04-16T18:14:16.559Z,18.58
2023-04-16T18:16:43.197Z,19.19
2023-04-16T18:19:09.765Z,19.27
2023-04-16T18:21:36.409Z,19.74
2023-04-16T18:24:03.503Z,19.83
2023-04-16T18:26:30.382Z,20.81
2023-04-16T18:28:57.099Z,21.84
2023-04-16T18:31:23.862Z,21.54
2023-04-16T18:33:57.295Z,22.06
2023-04-16T18:36:26.635Z,22.41
2023-04-16T18:39:01.578Z,22.64
2023-04-16T18:41:29.681Z,22.28
2023-04-16T18:43:56.604Z,22.08
2023-04-16T18:46:23.311Z,22.89
2023-04-16T18:48:50.079Z,22.81
2023-04-16T18:51:16.919Z,22.29
2023-04-16T18:53:45.435Z,22.71
2023-04-16T18:56:12.517Z,22.44
2023-04-16T18:58:39.120Z,23.06
2023-04-16T19:01:10.739Z,23.91
2023-04-16T19:03:38.069Z,23.96
2023-04-16T19:06:05.087Z,23.35
2023-04-16T19:08:31.937Z,23.47
2023-04-16T19:10:58.556Z,24.35
2023-04-16T19:13:25.325Z,24.48
2023-04-16T19:15:52.040Z,23.69
2023-04-16T19:18:18.654Z,23.53
2023-04-16T19:20:45.280Z,24.35
2023-04-16T19:23:13.054Z,23.45
2023-04-16T19:25:39.670Z,23.52
2023-04-16T19:28:06.624Z,23.20
2023-04-16T19:30:33.450Z,22.57
2023-04-16T19:33:00.169Z,23.71
2023-04-16T19:35:27.114Z,23.39
2023-04-16T19:37:56.188Z,23.31
2023-04-16T19:40:22.824Z,23.82
2023-04-16T19:42:49.474Z,23.80
2023-04-16T19:45:17.598Z,23.45
2023-04-16T19:47:44.687Z,23.77
2023-04-16T19:50:11.689Z,23.27
2023-04-16T19:52:39.039Z,24.04
2023-04-16T19:55:06.982Z,23.94
2023-04-16T19:57:33.727Z,23.83
2023-04-16T20:00:00.418Z,24.08
2023-04-16T20:02:27.286Z,24.63
2023-04-16T20:04:54.050Z,24.99
2023-04-16T20:07:20.672Z,24.22
2023-04-16T20:09:47.381Z,24.86
2023-04-16T20:12:14.379Z,24.98
2023-04-16T20:14:41.916Z,24.48
2023-04-16T20:17:09.926Z,25.13
2023-04-16T20:19:40.251Z,24.69
2023-04-16T20:22:07.048Z,24.62
2023-04-16T20:24:34.294Z,24.34
2023-04-16T20:27:01.727Z,24.88
2023-04-16T20:29:28.420Z,24.43
2023-04-16T20:31:55.031Z,25.20
2023-04-16T20:34:21.628Z,25.71
2023-04-16T20:36:48.305Z,26.14
2023-04-16T20:39:20.149Z,26.25
2023-04-16T20:41:57.017Z,26.53
2023-04-16T20:44:26.204Z,26.61
2023-04-16T20:46:56.227Z,26.63
2023-04-16T20:49:24.865Z,26.36
2023-04-16T20:51:51.491Z,27.15
2023-04-16T20:54:18.137Z,26.98
2023-04-16T20:56:44.917Z,27.73
2023-04-16T20:59:13.277Z,27.82
2023-04-16T21:01:40.011Z,28.29
2023-04-16T21:04:07.139Z,28.84
2023-04-16T21:06:38.296Z,28.44
2023-04-16T21:09:06.023Z,27.75
2023-04-16T21:11:34.667Z,27.95
2023-04-16T21:14:05.708Z,27.86
2023-04-16T21:16:32.718Z,27.76
2023-04-16T21:18:59.351Z,28.38
2023-04-16T21:21:27.402Z,29.01
2023-04-16T21:23:54.680Z,28.13
2023-04-16T21:26:21.370Z,27.68
2023-04-16T21:28:48.292Z,27.90
2023-04-16T21:31:15.031Z,26.76
2023-04-16T21:33:41.658Z,25.71
2023-04-16T21:36:08.393Z,26.46
2023-04-16T21:38:34.985Z,25.74
2023-04-16T21:41:01.782Z,25.54
2023-04-16T21:43:32.133Z,25.50
2023-04-16T21:45:59.477Z,25.90
2023-04-16T21:48:26.998Z,26.01
2023-04-16T21:50:57.991Z,26.25
2023-04-16T21:53:31.923Z,25.83
2023-04-16T21:55:58.867Z,26.14
2023-04-16T21:58:25.952Z,25.55
2023-04-16T22:00:53.031Z,25.95
2023-04-16T22:03:19.902Z,24.87
2023-04-16T22:05:46.675Z,25.79
2023-04-16T22:08:24.105Z,26.26
2023-04-16T22:10:51.726Z,26.72
2023-04-16T22:13:18.372Z,27.04
2023-04-16T22:15:44.997Z,27.22
2023-04-16T22:18:11.682Z,27.26
2023-04-16T22:20:38.997Z,27.46
2023-04-16T22:23:06.547Z,28.83
2023-04-16T22:25:33.685Z,28.05
2023-04-16T22:28:01.529Z,29.13
2023-04-16T22:30:28.295Z,28.37
2023-04-16T22:32:55.114Z,28.78
2023-04-16T22:35:21.966Z,28.74
2023-04-16T22:37:48.555Z,28.49
2023-04-16T22:40:15.788Z,28.26
2023-04-16T22:42:42.680Z,28.50
2023-04-16T22:45:09.664Z,28.57
2023-04-16T22:47:36.392Z,27.73
2023-04-16T22:50:03.236Z,28.38
2023-04-16T22:52:29.864Z,28.72
2023-04-16T22:54:56.537Z,29.94
2023-04-16T22:57:25.538Z,30.36
2023-04-16T22:59:53.259Z,30.09
2023-04-16T23:02:21.101Z,30.57
2023-04-16T23:04:48.049Z,30.60
2023-04-16T23:07:15.540Z,30.19
2023-04-16T23:09:42.544Z,29.50
2023-04-16T23:12:09.205Z,29.76
2023-04-16T23:14:36.910Z,30.08
2023-04-16T23:17:03.819Z,30.69
2023-04-16T23:19:31.716Z,31.10
2023-04-16T23:21:58.683Z,30.45
2023-04-16T23:24:25.396Z,30.42
2023-04-16T23:26:52.690Z,30.19
2023-04-16T23:29:20.567Z,30.71
2023-04-16T23:31:47.353Z,31.31
2023-04-16T23:34:13.985Z,32.04
2023-04-16T23:36:40.834Z,31.87
2023-04-16T23:39:07.539Z,32.23
2023-04-16T23:41:34.738Z,32.55
2023-04-16T23:44:01.396Z,31.72
2023-04-16T23:46:28.024Z,31.73
2023-04-16T23:48:55.442Z,30.19
2023-04-16T23:51:22.270Z,30.89
2023-04-16T23:53:48.957Z,31.18
2023-04-16T23:56:15.929Z,31.51
2023-04-16T23:58:42.576Z,30.97
